Time;durP1;ratioP1;P1;durP2;ratioP2;P2;SDS_P1;SDS_P2;PMS_P1;PMS_P2;Temp;Humidity;BMP_temperature;BMP_pressure;BME280_temperature;BME280_humidity;BME280_pressure;Samples;Min_cycle;Max_cycle;Signal;HPM_P1;HPM_P2
2023/12/13 00:04:22;;;;;;;6.18;3.13;;;;;;;;;;10366559;28;20259;-74
2023/12/13 00:09:23;;;;;;;10.55;3.10;;;;;;;;;;10343982;28;20215;-73
2023/12/13 00:14:24;;;;;;;5.30;3.03;;;;;;;;;;10346626;28;20211;-73
2023/12/13 00:19:25;;;;;;;8.40;3.72;;;;;;;;;;10346844;28;20247;-74
2023/12/13 00:24:26;;;;;;;4.72;3.85;;;;;;;;;;10347666;28;20311;-74
2023/12/13 00:29:27;;;;;;;11.07;3.20;;;;;;;;;;10383264;28;20710;-73
2023/12/13 00:34:28;;;;;;;7.80;2.95;;;;;;;;;;10392442;28;20226;-75
2023/12/13 00:39:29;;;;;;;5.80;2.88;;;;;;;;;;10387479;28;21015;-72
2023/12/13 00:44:31;;;;;;;6.32;3.15;;;;;;;;;;10388120;28;20238;-72
2023/12/13 00:49:32;;;;;;;12.55;4.07;;;;;;;;;;10391424;28;20310;-73
2023/12/13 00:54:33;;;;;;;4.10;2.97;;;;;;;;;;10349432;28;20274;-75
2023/12/13 00:59:35;;;;;;;8.05;3.30;;;;;;;;;;10345221;28;20227;-73
2023/12/13 01:04:38;;;;;;;8.70;3.50;;;;;;;;;;10385278;28;20381;-74
2023/12/13 01:09:39;;;;;;;8.77;3.75;;;;;;;;;;10389660;28;20215;-72
2023/12/13 01:14:40;;;;;;;6.50;3.47;;;;;;;;;;10389634;28;20361;-72
2023/12/13 01:19:41;;;;;;;10.02;3.10;;;;;;;;;;10388087;28;20219;-73
2023/12/13 01:24:42;;;;;;;5.80;3.40;;;;;;;;;;10387322;28;20212;-74
2023/12/13 01:29:43;;;;;;;6.90;3.55;;;;;;;;;;10384285;28;20212;-73
2023/12/13 01:34:44;;;;;;;6.22;4.15;;;;;;;;;;10387805;28;20736;-74
2023/12/13 01:39:45;;;;;;;5.65;3.47;;;;;;;;;;10388590;28;20222;-74
2023/12/13 01:44:46;;;;;;;4.55;4.03;;;;;;;;;;10387245;28;20225;-73
2023/12/13 01:49:47;;;;;;;10.90;4.68;;;;;;;;;;10385794;28;20211;-74
2023/12/13 01:54:48;;;;;;;7.80;4.32;;;;;;;;;;10391810;28;20334;-74
2023/12/13 01:59:50;;;;;;;5.88;4.95;;;;;;;;;;10380922;28;20647;-74
2023/12/13 02:04:51;;;;;;;7.43;4.28;;;;;;;;;;10391515;28;20243;-76
2023/12/13 02:09:52;;;;;;;8.57;4.95;;;;;;;;;;10354058;28;20645;-74
2023/12/13 02:14:53;;;;;;;10.82;4.50;;;;;;;;;;10347318;28;20303;-72
2023/12/13 02:19:54;;;;;;;9.13;5.03;;;;;;;;;;10350616;28;20261;-73
2023/12/13 02:24:56;;;;;;;7.78;4.82;;;;;;;;;;10348085;28;20310;-72
2023/12/13 02:29:57;;;;;;;7.70;5.00;;;;;;;;;;10342281;28;20227;-73
2023/12/13 02:34:58;;;;;;;7.93;5.55;;;;;;;;;;10346375;28;20318;-74
2023/12/13 02:40:02;;;;;;;8.38;5.50;;;;;;;;;;10340453;28;20212;-73
2023/12/13 02:45:04;;;;;;;7.45;5.43;;;;;;;;;;10381574;28;20730;-74
2023/12/13 02:50:06;;;;;;;9.73;5.50;;;;;;;;;;10386338;28;20223;-73
2023/12/13 02:55:09;;;;;;;8.93;5.72;;;;;;;;;;10389292;28;20250;-73
2023/12/13 03:00:11;;;;;;;12.63;6.30;;;;;;;;;;10381416;28;20574;-75
2023/12/13 03:05:12;;;;;;;10.45;5.80;;;;;;;;;;10402082;28;20215;-74
2023/12/13 03:10:13;;;;;;;9.43;5.47;;;;;;;;;;10380238;28;20225;-74
2023/12/13 03:15:14;;;;;;;9.40;6.22;;;;;;;;;;10380104;28;20219;-74
2023/12/13 03:20:15;;;;;;;11.20;6.05;;;;;;;;;;10390051;28;20212;-74
2023/12/13 03:25:16;;;;;;;10.68;6.15;;;;;;;;;;10389354;28;20278;-73
2023/12/13 03:30:17;;;;;;;11.07;6.40;;;;;;;;;;10391336;28;20183;-71
2023/12/13 03:35:18;;;;;;;10.35;6.60;;;;;;;;;;10385849;28;20215;-73
2023/12/13 03:40:19;;;;;;;7.75;5.90;;;;;;;;;;10391406;28;20188;-73
2023/12/13 03:45:23;;;;;;;9.77;6.07;;;;;;;;;;10385330;28;20211;-73
2023/12/13 03:50:24;;;;;;;9.15;5.95;;;;;;;;;;10343878;28;20223;-74
2023/12/13 03:55:25;;;;;;;11.90;5.97;;;;;;;;;;10348029;28;22337;-74
2023/12/13 04:00:26;;;;;;;8.23;5.55;;;;;;;;;;10386645;28;20215;-74
2023/12/13 04:05:28;;;;;;;9.88;6.57;;;;;;;;;;10390734;28;20262;-71
2023/12/13 04:10:29;;;;;;;8.82;6.10;;;;;;;;;;10400767;28;20425;-72
2023/12/13 04:15:30;;;;;;;8.55;5.57;;;;;;;;;;10382298;28;20281;-73
2023/12/13 04:20:31;;;;;;;11.68;5.72;;;;;;;;;;10384994;28;20776;-73
2023/12/13 04:25:32;;;;;;;8.55;5.40;;;;;;;;;;10389219;28;20302;-72
2023/12/13 04:30:33;;;;;;;6.65;5.00;;;;;;;;;;10386784;28;20225;-75
2023/12/13 04:35:34;;;;;;;10.48;6.22;;;;;;;;;;10388045;28;20250;-72
2023/12/13 04:40:35;;;;;;;6.35;5.10;;;;;;;;;;10384283;28;20860;-72
2023/12/13 04:45:36;;;;;;;5.63;4.75;;;;;;;;;;10384612;28;20403;-72
2023/12/13 04:50:37;;;;;;;8.82;5.57;;;;;;;;;;10391010;28;20650;-73
2023/12/13 04:55:38;;;;;;;7.45;5.88;;;;;;;;;;10388710;28;20298;-71
2023/12/13 05:00:39;;;;;;;6.15;5.13;;;;;;;;;;10383045;28;20310;-72
2023/12/13 05:05:40;;;;;;;9.05;5.75;;;;;;;;;;10383612;28;20223;-73
2023/12/13 05:10:43;;;;;;;8.93;5.93;;;;;;;;;;10347467;28;20238;-73
2023/12/13 05:15:44;;;;;;;7.95;5.70;;;;;;;;;;10346981;28;20850;-74
2023/12/13 05:20:48;;;;;;;6.88;5.72;;;;;;;;;;10350257;28;20229;-74
2023/12/13 05:25:51;;;;;;;8.45;5.35;;;;;;;;;;10387111;28;20222;-74
2023/12/13 05:30:52;;;;;;;10.10;6.50;;;;;;;;;;10381116;28;20211;-73
2023/12/13 05:35:53;;;;;;;9.00;6.53;;;;;;;;;;10387097;28;20219;-75
2023/12/13 05:40:56;;;;;;;7.90;6.55;;;;;;;;;;10381399;28;20234;-73
2023/12/13 05:45:59;;;;;;;13.95;7.38;;;;;;;;;;10380150;28;20897;-73
2023/12/13 05:51:00;;;;;;;15.68;7.97;;;;;;;;;;10384802;28;20305;-74
2023/12/13 05:56:01;;;;;;;12.45;7.13;;;;;;;;;;10374048;28;20227;-73
2023/12/13 06:01:03;;;;;;;11.45;6.90;;;;;;;;;;10375295;28;20216;-72
2023/12/13 06:06:04;;;;;;;8.50;6.07;;;;;;;;;;10379180;28;20227;-74
2023/12/13 06:11:05;;;;;;;10.30;6.70;;;;;;;;;;10395481;28;20280;-74
2023/12/13 06:16:12;;;;;;;8.75;6.72;;;;;;;;;;10384913;28;20233;-72
2023/12/13 06:21:13;;;;;;;10.70;6.20;;;;;;;;;;10383119;28;20292;-76
2023/12/13 06:26:14;;;;;;;10.25;5.95;;;;;;;;;;10360886;28;20269;-73
2023/12/13 06:31:15;;;;;;;10.15;7.13;;;;;;;;;;10320909;28;20709;-74
2023/12/13 06:36:16;;;;;;;11.00;6.63;;;;;;;;;;10332733;28;20212;-74
2023/12/13 06:41:17;;;;;;;11.57;6.63;;;;;;;;;;10317990;28;20750;-73
2023/12/13 06:46:18;;;;;;;11.25;6.15;;;;;;;;;;10342115;28;20364;-74
2023/12/13 06:51:19;;;;;;;12.60;6.93;;;;;;;;;;10343779;28;20343;-72
2023/12/13 06:56:20;;;;;;;11.70;7.68;;;;;;;;;;10342695;28;20484;-74
2023/12/13 07:01:22;;;;;;;13.07;7.57;;;;;;;;;;10333992;28;20211;-72
2023/12/13 07:06:23;;;;;;;11.57;6.68;;;;;;;;;;10342518;28;20216;-73
2023/12/13 07:11:24;;;;;;;12.00;6.88;;;;;;;;;;10319231;28;20256;-73
2023/12/13 07:16:26;;;;;;;13.88;7.57;;;;;;;;;;10341201;28;20219;-74
2023/12/13 07:21:27;;;;;;;10.98;6.68;;;;;;;;;;10373584;28;20708;-73
